Alton, New Hampshire
Current Conditions -  °F | °C
As of 10:35 AM on Monday 22 Dec 2014 (Local Time) from KLCI Reporting Station
Overcast Overcast  
Wind Chill: -4°   Ceiling: 4200
Heat Index:   Visibility: 10mi
Dew Point: -4°   Wind: 8mph
Humidity: 75%   Direction: 40°NE
Pressure: 30.37"   Gusts: NA
Location:  43.45°N, 71.22°W
Report Text: KLCI 221535Z AUTO 04007KT 10SM OVC042 00/M04 A3037 RMK AO1
Loading
Personal Weather Stations






























Interactive Weather Map New forecast layout! Learn more

10-Day Weather Forecast

Advertisements
Track Severe Weather on mobile